sensor_id;sensor_type;location;lat;lon;timestamp;P1;durP1;ratioP1;P2;durP2;ratioP2
65368;SDS011;51970;53.484;49.488;2023-04-25T00:00:29;21.05;;;4.80;;
65368;SDS011;51970;53.484;49.488;2023-04-25T00:02:55;11.10;;;4.40;;
65368;SDS011;51970;53.484;49.488;2023-04-25T00:05:25;16.77;;;5.45;;
65368;SDS011;51970;53.484;49.488;2023-04-25T00:07:52;14.35;;;5.32;;
65368;SDS011;51970;53.484;49.488;2023-04-25T00:10:19;12.73;;;4.07;;
65368;SDS011;51970;53.484;49.488;2023-04-25T00:12:46;14.45;;;5.13;;
65368;SDS011;51970;53.484;49.488;2023-04-25T00:15:13;20.10;;;4.65;;
65368;SDS011;51970;53.484;49.488;2023-04-25T00:17:39;15.07;;;5.20;;
65368;SDS011;51970;53.484;49.488;2023-04-25T00:20:05;18.23;;;4.63;;
65368;SDS011;51970;53.484;49.488;2023-04-25T00:22:35;12.82;;;5.43;;
65368;SDS011;51970;53.484;49.488;2023-04-25T00:25:06;20.38;;;5.43;;
65368;SDS011;51970;53.484;49.488;2023-04-25T00:27:32;15.77;;;4.72;;
65368;SDS011;51970;53.484;49.488;2023-04-25T00:29:58;18.30;;;5.32;;
65368;SDS011;51970;53.484;49.488;2023-04-25T00:32:25;14.57;;;5.03;;
65368;SDS011;51970;53.484;49.488;2023-04-25T00:34:51;18.67;;;5.72;;
65368;SDS011;51970;53.484;49.488;2023-04-25T00:37:17;13.52;;;4.78;;
65368;SDS011;51970;53.484;49.488;2023-04-25T00:39:43;12.73;;;4.90;;
65368;SDS011;51970;53.484;49.488;2023-04-25T00:42:10;14.20;;;4.93;;
65368;SDS011;51970;53.484;49.488;2023-04-25T00:44:37;17.55;;;4.07;;
65368;SDS011;51970;53.484;49.488;2023-04-25T00:47:04;13.68;;;5.72;;
65368;SDS011;51970;53.484;49.488;2023-04-25T00:49:31;14.45;;;4.90;;
65368;SDS011;51970;53.484;49.488;2023-04-25T00:51:57;18.35;;;4.82;;
65368;SDS011;51970;53.484;49.488;2023-04-25T00:54:24;13.10;;;4.82;;
65368;SDS011;51970;53.484;49.488;2023-04-25T00:56:51;15.02;;;5.30;;
65368;SDS011;51970;53.484;49.488;2023-04-25T00:59:18;11.93;;;5.60;;
65368;SDS011;51970;53.484;49.488;2023-04-25T01:01:45;13.52;;;5.45;;
65368;SDS011;51970;53.484;49.488;2023-04-25T01:04:11;17.85;;;4.85;;
65368;SDS011;51970;53.484;49.488;2023-04-25T01:06:39;13.98;;;4.82;;
65368;SDS011;51970;53.484;49.488;2023-04-25T01:09:06;17.27;;;5.47;;
65368;SDS011;51970;53.484;49.488;2023-04-25T01:11:33;15.48;;;5.13;;
65368;SDS011;51970;53.484;49.488;2023-04-25T01:13:59;18.20;;;5.50;;
65368;SDS011;51970;53.484;49.488;2023-04-25T01:16:26;16.38;;;5.57;;
65368;SDS011;51970;53.484;49.488;2023-04-25T01:18:52;15.57;;;4.40;;
65368;SDS011;51970;53.484;49.488;2023-04-25T01:21:19;18.15;;;5.03;;
65368;SDS011;51970;53.484;49.488;2023-04-25T01:23:46;14.77;;;4.57;;
65368;SDS011;51970;53.484;49.488;2023-04-25T01:26:13;17.30;;;4.90;;
65368;SDS011;51970;53.484;49.488;2023-04-25T01:28:39;16.70;;;4.63;;
65368;SDS011;51970;53.484;49.488;2023-04-25T01:31:09;19.70;;;5.43;;
65368;SDS011;51970;53.484;49.488;2023-04-25T01:33:35;14.65;;;5.55;;
65368;SDS011;51970;53.484;49.488;2023-04-25T01:36:01;17.75;;;4.70;;
65368;SDS011;51970;53.484;49.488;2023-04-25T01:38:28;17.65;;;5.70;;
65368;SDS011;51970;53.484;49.488;2023-04-25T01:40:55;14.02;;;4.53;;
65368;SDS011;51970;53.484;49.488;2023-04-25T01:43:22;12.98;;;5.10;;
65368;SDS011;51970;53.484;49.488;2023-04-25T01:45:49;25.00;;;6.60;;
65368;SDS011;51970;53.484;49.488;2023-04-25T01:48:16;12.95;;;6.32;;
65368;SDS011;51970;53.484;49.488;2023-04-25T01:50:42;16.38;;;4.38;;
65368;SDS011;51970;53.484;49.488;2023-04-25T01:53:09;17.33;;;5.50;;
65368;SDS011;51970;53.484;49.488;2023-04-25T01:55:37;18.60;;;4.38;;
65368;SDS011;51970;53.484;49.488;2023-04-25T01:58:03;15.88;;;4.80;;
65368;SDS011;51970;53.484;49.488;2023-04-25T02:00:38;19.50;;;4.80;;
65368;SDS011;51970;53.484;49.488;2023-04-25T02:03:06;16.88;;;4.60;;
65368;SDS011;51970;53.484;49.488;2023-04-25T02:05:36;13.85;;;5.80;;
65368;SDS011;51970;53.484;49.488;2023-04-25T02:08:04;16.17;;;5.82;;
65368;SDS011;51970;53.484;49.488;2023-04-25T02:10:31;19.17;;;5.05;;
65368;SDS011;51970;53.484;49.488;2023-04-25T02:12:58;15.93;;;4.50;;
65368;SDS011;51970;53.484;49.488;2023-04-25T02:15:24;19.35;;;5.82;;
65368;SDS011;51970;53.484;49.488;2023-04-25T02:17:51;16.05;;;4.53;;
65368;SDS011;51970;53.484;49.488;2023-04-25T02:20:20;23.98;;;5.68;;
65368;SDS011;51970;53.484;49.488;2023-04-25T02:22:47;17.30;;;4.97;;
65368;SDS011;51970;53.484;49.488;2023-04-25T02:25:14;18.25;;;5.10;;
65368;SDS011;51970;53.484;49.488;2023-04-25T02:27:41;19.35;;;5.80;;
65368;SDS011;51970;53.484;49.488;2023-04-25T02:30:08;16.70;;;4.78;;
65368;SDS011;51970;53.484;49.488;2023-04-25T02:32:35;22.45;;;5.35;;
65368;SDS011;51970;53.484;49.488;2023-04-25T02:35:02;25.23;;;6.10;;
65368;SDS011;51970;53.484;49.488;2023-04-25T02:37:35;15.55;;;4.50;;
65368;SDS011;51970;53.484;49.488;2023-04-25T02:40:02;21.67;;;4.97;;
65368;SDS011;51970;53.484;49.488;2023-04-25T02:42:29;16.92;;;4.85;;
65368;SDS011;51970;53.484;49.488;2023-04-25T02:44:56;16.70;;;4.63;;
65368;SDS011;51970;53.484;49.488;2023-04-25T02:47:22;18.92;;;4.68;;
65368;SDS011;51970;53.484;49.488;2023-04-25T02:49:48;18.15;;;7.28;;
65368;SDS011;51970;53.484;49.488;2023-04-25T02:52:15;15.68;;;5.65;;
65368;SDS011;51970;53.484;49.488;2023-04-25T02:54:41;14.20;;;5.13;;
65368;SDS011;51970;53.484;49.488;2023-04-25T02:57:07;20.10;;;6.68;;
65368;SDS011;51970;53.484;49.488;2023-04-25T02:59:33;20.48;;;5.65;;
65368;SDS011;51970;53.484;49.488;2023-04-25T03:02:00;21.92;;;6.22;;
65368;SDS011;51970;53.484;49.488;2023-04-25T03:04:26;20.83;;;6.72;;
65368;SDS011;51970;53.484;49.488;2023-04-25T03:06:52;16.58;;;5.78;;
65368;SDS011;51970;53.484;49.488;2023-04-25T03:09:19;16.80;;;5.25;;
65368;SDS011;51970;53.484;49.488;2023-04-25T03:11:45;18.45;;;5.70;;
65368;SDS011;51970;53.484;49.488;2023-04-25T03:14:12;14.60;;;5.93;;
65368;SDS011;51970;53.484;49.488;2023-04-25T03:16:39;28.17;;;6.45;;
65368;SDS011;51970;53.484;49.488;2023-04-25T03:19:05;15.85;;;4.45;;
65368;SDS011;51970;53.484;49.488;2023-04-25T03:21:31;18.75;;;5.25;;
65368;SDS011;51970;53.484;49.488;2023-04-25T03:24:00;21.90;;;4.90;;
65368;SDS011;51970;53.484;49.488;2023-04-25T03:26:28;17.63;;;5.45;;
65368;SDS011;51970;53.484;49.488;2023-04-25T03:28:54;13.40;;;5.70;;
65368;SDS011;51970;53.484;49.488;2023-04-25T03:31:20;23.27;;;6.70;;
65368;SDS011;51970;53.484;49.488;2023-04-25T03:33:48;18.50;;;4.78;;
65368;SDS011;51970;53.484;49.488;2023-04-25T03:36:14;19.63;;;5.68;;
65368;SDS011;51970;53.484;49.488;2023-04-25T03:38:40;16.48;;;5.43;;
65368;SDS011;51970;53.484;49.488;2023-04-25T03:41:07;15.48;;;5.78;;
65368;SDS011;51970;53.484;49.488;2023-04-25T03:43:33;15.05;;;5.80;;
65368;SDS011;51970;53.484;49.488;2023-04-25T03:45:59;16.33;;;6.43;;
65368;SDS011;51970;53.484;49.488;2023-04-25T03:48:26;19.05;;;6.28;;
65368;SDS011;51970;53.484;49.488;2023-04-25T03:50:53;18.52;;;5.22;;
65368;SDS011;51970;53.484;49.488;2023-04-25T03:53:20;16.92;;;5.60;;
65368;SDS011;51970;53.484;49.488;2023-04-25T03:55:46;22.98;;;6.47;;
65368;SDS011;51970;53.484;49.488;2023-04-25T03:58:14;18.95;;;6.80;;
65368;SDS011;51970;53.484;49.488;2023-04-25T04:00:40;19.23;;;6.60;;
65368;SDS011;51970;53.484;49.488;2023-04-25T04:03:06;16.35;;;6.70;;
65368;SDS011;51970;53.484;49.488;2023-04-25T04:05:32;12.90;;;5.30;;
65368;SDS011;51970;53.484;49.488;2023-04-25T04:07:58;19.98;;;6.00;;
65368;SDS011;51970;53.484;49.488;2023-04-25T04:10:25;16.40;;;6.22;;
65368;SDS011;51970;53.484;49.488;2023-04-25T04:12:53;18.75;;;7.75;;
65368;SDS011;51970;53.484;49.488;2023-04-25T04:15:20;22.65;;;7.35;;
65368;SDS011;51970;53.484;49.488;2023-04-25T04:17:48;16.42;;;6.82;;
65368;SDS011;51970;53.484;49.488;2023-04-25T04:20:14;43.28;;;8.38;;
65368;SDS011;51970;53.484;49.488;2023-04-25T04:22:40;26.83;;;7.07;;
65368;SDS011;51970;53.484;49.488;2023-04-25T04:25:07;20.90;;;6.93;;
65368;SDS011;51970;53.484;49.488;2023-04-25T04:27:33;17.30;;;6.45;;
65368;SDS011;51970;53.484;49.488;2023-04-25T04:29:59;67.72;;;8.00;;
65368;SDS011;51970;53.484;49.488;2023-04-25T04:32:26;20.92;;;6.95;;
65368;SDS011;51970;53.484;49.488;2023-04-25T04:34:53;23.45;;;7.18;;
65368;SDS011;51970;53.484;49.488;2023-04-25T04:37:20;28.33;;;6.75;;
65368;SDS011;51970;53.484;49.488;2023-04-25T04:39:47;18.48;;;6.65;;
65368;SDS011;51970;53.484;49.488;2023-04-25T04:42:13;25.00;;;5.57;;
65368;SDS011;51970;53.484;49.488;2023-04-25T04:44:39;26.98;;;7.88;;
65368;SDS011;51970;53.484;49.488;2023-04-25T04:47:06;24.92;;;7.88;;
65368;SDS011;51970;53.484;49.488;2023-04-25T04:49:32;25.83;;;8.07;;
65368;SDS011;51970;53.484;49.488;2023-04-25T04:51:58;97.18;;;13.70;;
65368;SDS011;51970;53.484;49.488;2023-04-25T04:54:27;21.45;;;7.20;;
65368;SDS011;51970;53.484;49.488;2023-04-25T04:56:53;27.30;;;7.28;;
65368;SDS011;51970;53.484;49.488;2023-04-25T04:59:21;77.07;;;8.48;;
65368;SDS011;51970;53.484;49.488;2023-04-25T05:01:48;21.73;;;7.50;;
65368;SDS011;51970;53.484;49.488;2023-04-25T05:04:14;27.15;;;7.82;;
65368;SDS011;51970;53.484;49.488;2023-04-25T05:06:43;32.03;;;8.05;;
65368;SDS011;51970;53.484;49.488;2023-04-25T05:09:11;30.67;;;8.93;;
65368;SDS011;51970;53.484;49.488;2023-04-25T05:11:38;23.95;;;6.80;;
65368;SDS011;51970;53.484;49.488;2023-04-25T05:14:04;36.47;;;7.38;;
65368;SDS011;51970;53.484;49.488;2023-04-25T05:16:31;275.40;;;17.23;;
65368;SDS011;51970;53.484;49.488;2023-04-25T05:18:57;31.40;;;7.70;;
65368;SDS011;51970;53.484;49.488;2023-04-25T05:21:25;103.10;;;11.23;;
65368;SDS011;51970;53.484;49.488;2023-04-25T05:23:53;299.58;;;19.52;;
65368;SDS011;51970;53.484;49.488;2023-04-25T05:26:20;27.90;;;7.88;;
65368;SDS011;51970;53.484;49.488;2023-04-25T05:28:46;16.63;;;6.78;;
65368;SDS011;51970;53.484;49.488;2023-04-25T05:31:12;28.35;;;7.70;;
65368;SDS011;51970;53.484;49.488;2023-04-25T05:33:39;27.58;;;6.85;;
65368;SDS011;51970;53.484;49.488;2023-04-25T05:36:05;34.75;;;7.85;;
65368;SDS011;51970;53.484;49.488;2023-04-25T05:38:32;36.03;;;6.47;;
65368;SDS011;51970;53.484;49.488;2023-04-25T05:40:59;23.40;;;7.00;;
65368;SDS011;51970;53.484;49.488;2023-04-25T05:43:25;18.73;;;7.95;;
65368;SDS011;51970;53.484;49.488;2023-04-25T05:45:52;20.73;;;8.63;;
65368;SDS011;51970;53.484;49.488;2023-04-25T05:48:19;28.35;;;8.02;;
65368;SDS011;51970;53.484;49.488;2023-04-25T05:50:45;17.75;;;5.82;;
65368;SDS011;51970;53.484;49.488;2023-04-25T05:53:11;21.67;;;7.35;;
65368;SDS011;51970;53.484;49.488;2023-04-25T05:55:38;30.02;;;8.85;;
65368;SDS011;51970;53.484;49.488;2023-04-25T05:58:05;22.52;;;6.57;;
65368;SDS011;51970;53.484;49.488;2023-04-25T06:00:34;155.02;;;11.82;;
65368;SDS011;51970;53.484;49.488;2023-04-25T06:03:01;35.70;;;8.82;;
65368;SDS011;51970;53.484;49.488;2023-04-25T06:05:27;36.42;;;15.27;;
65368;SDS011;51970;53.484;49.488;2023-04-25T06:07:55;27.65;;;9.98;;
65368;SDS011;51970;53.484;49.488;2023-04-25T06:10:21;20.73;;;8.52;;
65368;SDS011;51970;53.484;49.488;2023-04-25T06:12:48;19.90;;;7.22;;
65368;SDS011;51970;53.484;49.488;2023-04-25T06:15:14;29.42;;;10.55;;
65368;SDS011;51970;53.484;49.488;2023-04-25T06:17:41;23.25;;;6.22;;
65368;SDS011;51970;53.484;49.488;2023-04-25T06:20:07;30.13;;;9.50;;
65368;SDS011;51970;53.484;49.488;2023-04-25T06:22:34;20.15;;;5.90;;
65368;SDS011;51970;53.484;49.488;2023-04-25T06:25:00;31.33;;;8.13;;
65368;SDS011;51970;53.484;49.488;2023-04-25T06:27:28;23.65;;;7.85;;
65368;SDS011;51970;53.484;49.488;2023-04-25T06:29:54;29.10;;;5.80;;
65368;SDS011;51970;53.484;49.488;2023-04-25T06:32:21;22.63;;;6.93;;
65368;SDS011;51970;53.484;49.488;2023-04-25T06:34:47;23.27;;;5.97;;
65368;SDS011;51970;53.484;49.488;2023-04-25T06:37:13;22.10;;;7.35;;
65368;SDS011;51970;53.484;49.488;2023-04-25T06:39:39;27.33;;;6.78;;
65368;SDS011;51970;53.484;49.488;2023-04-25T06:42:05;20.17;;;6.95;;
65368;SDS011;51970;53.484;49.488;2023-04-25T06:44:31;25.48;;;7.60;;
65368;SDS011;51970;53.484;49.488;2023-04-25T06:46:58;35.22;;;8.02;;
65368;SDS011;51970;53.484;49.488;2023-04-25T06:49:24;29.17;;;7.20;;
65368;SDS011;51970;53.484;49.488;2023-04-25T06:51:50;36.42;;;9.32;;
65368;SDS011;51970;53.484;49.488;2023-04-25T06:54:17;20.60;;;6.05;;
65368;SDS011;51970;53.484;49.488;2023-04-25T06:56:43;39.60;;;7.75;;
65368;SDS011;51970;53.484;49.488;2023-04-25T06:59:09;28.98;;;7.60;;
65368;SDS011;51970;53.484;49.488;2023-04-25T07:01:35;24.48;;;7.53;;
65368;SDS011;51970;53.484;49.488;2023-04-25T07:04:01;26.48;;;7.75;;
65368;SDS011;51970;53.484;49.488;2023-04-25T07:06:27;32.67;;;9.73;;
65368;SDS011;51970;53.484;49.488;2023-04-25T07:08:54;38.10;;;7.57;;
65368;SDS011;51970;53.484;49.488;2023-04-25T07:11:21;21.73;;;8.05;;
65368;SDS011;51970;53.484;49.488;2023-04-25T07:13:47;24.08;;;7.88;;
65368;SDS011;51970;53.484;49.488;2023-04-25T08:56:51;9.55;;;3.42;;
65368;SDS011;51970;53.484;49.488;2023-04-25T08:59:22;25.10;;;11.63;;
65368;SDS011;51970;53.484;49.488;2023-04-25T09:01:49;36.70;;;16.88;;
65368;SDS011;51970;53.484;49.488;2023-04-25T09:04:15;21.45;;;8.88;;
65368;SDS011;51970;53.484;49.488;2023-04-25T09:06:42;17.42;;;4.82;;
65368;SDS011;51970;53.484;49.488;2023-04-25T09:09:09;23.42;;;11.75;;
65368;SDS011;51970;53.484;49.488;2023-04-25T09:11:36;21.17;;;11.02;;
65368;SDS011;51970;53.484;49.488;2023-04-25T09:19:23;13.27;;;6.03;;
65368;SDS011;51970;53.484;49.488;2023-04-25T09:21:55;15.73;;;6.57;;
65368;SDS011;51970;53.484;49.488;2023-04-25T09:24:44;23.55;;;7.72;;
65368;SDS011;51970;53.484;49.488;2023-04-25T09:27:12;28.05;;;13.65;;
65368;SDS011;51970;53.484;49.488;2023-04-25T09:29:43;17.00;;;6.10;;
65368;SDS011;51970;53.484;49.488;2023-04-25T09:32:13;18.90;;;6.15;;
65368;SDS011;51970;53.484;49.488;2023-04-25T09:34:42;15.32;;;4.00;;
65368;SDS011;51970;53.484;49.488;2023-04-25T09:37:10;15.23;;;5.20;;
65368;SDS011;51970;53.484;49.488;2023-04-25T09:39:38;24.67;;;9.32;;
65368;SDS011;51970;53.484;49.488;2023-04-25T09:42:05;19.58;;;5.72;;
65368;SDS011;51970;53.484;49.488;2023-04-25T09:44:32;17.40;;;3.97;;
65368;SDS011;51970;53.484;49.488;2023-04-25T09:46:59;12.43;;;4.53;;
65368;SDS011;51970;53.484;49.488;2023-04-25T09:49:26;12.40;;;5.63;;
65368;SDS011;51970;53.484;49.488;2023-04-25T09:51:58;12.80;;;4.43;;
65368;SDS011;51970;53.484;49.488;2023-04-25T09:54:26;20.20;;;6.57;;
65368;SDS011;51970;53.484;49.488;2023-04-25T09:56:53;13.60;;;5.15;;
65368;SDS011;51970;53.484;49.488;2023-04-25T09:59:21;15.10;;;5.75;;
65368;SDS011;51970;53.484;49.488;2023-04-25T10:01:51;18.70;;;6.10;;
65368;SDS011;51970;53.484;49.488;2023-04-25T10:04:25;17.08;;;4.97;;
65368;SDS011;51970;53.484;49.488;2023-04-25T10:06:53;15.85;;;4.35;;
65368;SDS011;51970;53.484;49.488;2023-04-25T10:11:51;11.43;;;3.03;;
65368;SDS011;51970;53.484;49.488;2023-04-25T10:14:19;24.65;;;6.30;;
65368;SDS011;51970;53.484;49.488;2023-04-25T10:16:49;24.67;;;7.13;;
65368;SDS011;51970;53.484;49.488;2023-04-25T10:19:20;20.38;;;8.35;;
65368;SDS011;51970;53.484;49.488;2023-04-25T10:22:00;13.98;;;5.60;;
65368;SDS011;51970;53.484;49.488;2023-04-25T10:24:47;13.88;;;6.38;;
65368;SDS011;51970;53.484;49.488;2023-04-25T10:27:17;10.82;;;3.63;;
65368;SDS011;51970;53.484;49.488;2023-04-25T10:29:59;16.00;;;4.32;;
65368;SDS011;51970;53.484;49.488;2023-04-25T10:32:41;10.48;;;3.92;;
65368;SDS011;51970;53.484;49.488;2023-04-25T10:35:15;14.98;;;4.03;;
65368;SDS011;51970;53.484;49.488;2023-04-25T10:40:37;21.55;;;7.03;;
65368;SDS011;51970;53.484;49.488;2023-04-25T10:48:54;11.10;;;4.07;;
65368;SDS011;51970;53.484;49.488;2023-04-25T10:51:27;12.75;;;4.43;;
65368;SDS011;51970;53.484;49.488;2023-04-25T10:54:06;17.48;;;5.45;;
65368;SDS011;51970;53.484;49.488;2023-04-25T10:56:40;11.95;;;3.30;;
65368;SDS011;51970;53.484;49.488;2023-04-25T10:59:19;11.95;;;4.05;;
65368;SDS011;51970;53.484;49.488;2023-04-25T11:01:49;10.30;;;3.88;;
65368;SDS011;51970;53.484;49.488;2023-04-25T11:04:23;16.10;;;3.58;;
65368;SDS011;51970;53.484;49.488;2023-04-25T11:07:02;15.88;;;4.15;;
65368;SDS011;51970;53.484;49.488;2023-04-25T11:09:42;25.05;;;6.20;;
65368;SDS011;51970;53.484;49.488;2023-04-25T11:12:14;15.32;;;4.05;;
65368;SDS011;51970;53.484;49.488;2023-04-25T11:14:47;10.52;;;2.75;;
65368;SDS011;51970;53.484;49.488;2023-04-25T11:17:15;9.65;;;3.33;;
65368;SDS011;51970;53.484;49.488;2023-04-25T11:19:53;14.75;;;3.20;;
65368;SDS011;51970;53.484;49.488;2023-04-25T11:22:21;21.13;;;5.72;;
65368;SDS011;51970;53.484;49.488;2023-04-25T11:24:57;16.20;;;3.13;;
65368;SDS011;51970;53.484;49.488;2023-04-25T11:27:25;13.38;;;5.03;;
65368;SDS011;51970;53.484;49.488;2023-04-25T11:29:55;22.50;;;5.57;;
65368;SDS011;51970;53.484;49.488;2023-04-25T11:32:43;23.05;;;5.68;;
65368;SDS011;51970;53.484;49.488;2023-04-25T11:35:54;10.57;;;3.38;;
65368;SDS011;51970;53.484;49.488;2023-04-25T11:38:30;13.25;;;3.72;;
65368;SDS011;51970;53.484;49.488;2023-04-25T11:40:59;10.43;;;3.85;;
65368;SDS011;51970;53.484;49.488;2023-04-25T11:43:30;9.77;;;4.45;;
65368;SDS011;51970;53.484;49.488;2023-04-25T11:46:12;14.07;;;3.72;;
65368;SDS011;51970;53.484;49.488;2023-04-25T11:48:47;9.00;;;2.80;;
65368;SDS011;51970;53.484;49.488;2023-04-25T11:51:21;11.82;;;3.70;;
65368;SDS011;51970;53.484;49.488;2023-04-25T11:53:49;16.13;;;3.50;;
65368;SDS011;51970;53.484;49.488;2023-04-25T11:56:35;10.75;;;3.20;;
65368;SDS011;51970;53.484;49.488;2023-04-25T11:59:04;12.35;;;3.47;;
65368;SDS011;51970;53.484;49.488;2023-04-25T12:04:15;12.25;;;3.50;;
65368;SDS011;51970;53.484;49.488;2023-04-25T12:07:15;13.30;;;3.90;;
65368;SDS011;51970;53.484;49.488;2023-04-25T12:09:50;22.75;;;7.63;;
65368;SDS011;51970;53.484;49.488;2023-04-25T12:12:18;18.52;;;7.28;;
65368;SDS011;51970;53.484;49.488;2023-04-25T12:14:46;52.38;;;20.42;;
65368;SDS011;51970;53.484;49.488;2023-04-25T12:17:21;72.80;;;26.27;;
65368;SDS011;51970;53.484;49.488;2023-04-25T12:19:49;35.35;;;13.27;;
65368;SDS011;51970;53.484;49.488;2023-04-25T12:22:23;57.75;;;19.23;;
65368;SDS011;51970;53.484;49.488;2023-04-25T12:24:51;27.98;;;10.85;;
65368;SDS011;51970;53.484;49.488;2023-04-25T12:27:19;36.22;;;13.38;;
65368;SDS011;51970;53.484;49.488;2023-04-25T12:29:52;65.97;;;20.42;;
65368;SDS011;51970;53.484;49.488;2023-04-25T12:32:23;50.15;;;19.45;;
65368;SDS011;51970;53.484;49.488;2023-04-25T12:34:51;47.17;;;15.93;;
65368;SDS011;51970;53.484;49.488;2023-04-25T12:37:17;59.05;;;16.60;;
65368;SDS011;51970;53.484;49.488;2023-04-25T12:39:47;85.10;;;37.05;;
65368;SDS011;51970;53.484;49.488;2023-04-25T12:42:19;28.60;;;14.60;;
65368;SDS011;51970;53.484;49.488;2023-04-25T12:45:17;36.50;;;20.20;;
65368;SDS011;51970;53.484;49.488;2023-04-25T12:48:11;29.08;;;13.00;;
65368;SDS011;51970;53.484;49.488;2023-04-25T12:50:40;24.95;;;9.90;;
65368;SDS011;51970;53.484;49.488;2023-04-25T12:53:15;19.30;;;7.55;;
65368;SDS011;51970;53.484;49.488;2023-04-25T12:55:43;15.55;;;5.60;;
65368;SDS011;51970;53.484;49.488;2023-04-25T12:58:50;22.55;;;7.65;;
65368;SDS011;51970;53.484;49.488;2023-04-25T13:02:20;40.10;;;19.85;;
65368;SDS011;51970;53.484;49.488;2023-04-25T13:05:25;47.03;;;26.25;;
65368;SDS011;51970;53.484;49.488;2023-04-25T13:11:00;23.02;;;6.90;;
65368;SDS011;51970;53.484;49.488;2023-04-25T13:13:44;21.10;;;7.57;;
65368;SDS011;51970;53.484;49.488;2023-04-25T13:16:13;21.17;;;12.50;;
65368;SDS011;51970;53.484;49.488;2023-04-25T13:18:41;25.52;;;14.00;;
65368;SDS011;51970;53.484;49.488;2023-04-25T13:21:10;19.45;;;11.13;;
65368;SDS011;51970;53.484;49.488;2023-04-25T13:23:59;16.85;;;8.95;;
65368;SDS011;51970;53.484;49.488;2023-04-25T13:26:25;19.52;;;9.70;;
65368;SDS011;51970;53.484;49.488;2023-04-25T13:28:54;15.75;;;7.68;;
65368;SDS011;51970;53.484;49.488;2023-04-25T13:31:21;18.40;;;7.70;;
65368;SDS011;51970;53.484;49.488;2023-04-25T13:33:51;16.20;;;7.28;;
65368;SDS011;51970;53.484;49.488;2023-04-25T13:36:18;18.90;;;8.20;;
65368;SDS011;51970;53.484;49.488;2023-04-25T13:38:45;12.63;;;6.70;;
65368;SDS011;51970;53.484;49.488;2023-04-25T13:41:13;23.38;;;7.55;;
65368;SDS011;51970;53.484;49.488;2023-04-25T13:43:44;14.10;;;6.40;;
65368;SDS011;51970;53.484;49.488;2023-04-25T13:46:12;18.52;;;8.60;;
65368;SDS011;51970;53.484;49.488;2023-04-25T13:48:41;18.85;;;9.18;;
65368;SDS011;51970;53.484;49.488;2023-04-25T13:51:14;24.10;;;10.80;;
65368;SDS011;51970;53.484;49.488;2023-04-25T13:53:41;21.70;;;10.85;;
65368;SDS011;51970;53.484;49.488;2023-04-25T13:56:07;27.15;;;11.75;;
65368;SDS011;51970;53.484;49.488;2023-04-25T13:58:34;25.88;;;12.93;;
65368;SDS011;51970;53.484;49.488;2023-04-25T14:01:00;26.92;;;12.02;;
65368;SDS011;51970;53.484;49.488;2023-04-25T14:03:29;25.85;;;12.13;;
65368;SDS011;51970;53.484;49.488;2023-04-25T14:05:56;20.75;;;11.98;;
65368;SDS011;51970;53.484;49.488;2023-04-25T14:08:24;20.48;;;10.65;;
65368;SDS011;51970;53.484;49.488;2023-04-25T14:10:52;33.83;;;9.93;;
65368;SDS011;51970;53.484;49.488;2023-04-25T14:13:20;21.83;;;9.88;;
65368;SDS011;51970;53.484;49.488;2023-04-25T14:15:54;24.75;;;10.30;;
65368;SDS011;51970;53.484;49.488;2023-04-25T14:18:22;20.70;;;10.45;;
65368;SDS011;51970;53.484;49.488;2023-04-25T14:20:50;20.08;;;9.70;;
65368;SDS011;51970;53.484;49.488;2023-04-25T14:23:19;24.42;;;10.02;;
65368;SDS011;51970;53.484;49.488;2023-04-25T14:25:46;35.00;;;15.40;;
65368;SDS011;51970;53.484;49.488;2023-04-25T14:28:14;38.47;;;15.32;;
65368;SDS011;51970;53.484;49.488;2023-04-25T14:30:42;23.92;;;10.52;;
65368;SDS011;51970;53.484;49.488;2023-04-25T14:33:09;21.42;;;10.57;;
65368;SDS011;51970;53.484;49.488;2023-04-25T14:35:35;27.35;;;13.07;;
65368;SDS011;51970;53.484;49.488;2023-04-25T14:38:01;27.27;;;12.65;;
65368;SDS011;51970;53.484;49.488;2023-04-25T14:40:29;34.40;;;12.48;;
65368;SDS011;51970;53.484;49.488;2023-04-25T14:42:55;35.65;;;13.73;;
65368;SDS011;51970;53.484;49.488;2023-04-25T14:45:21;23.80;;;14.15;;
65368;SDS011;51970;53.484;49.488;2023-04-25T14:47:50;24.60;;;14.20;;
65368;SDS011;51970;53.484;49.488;2023-04-25T14:50:23;32.40;;;16.60;;
65368;SDS011;51970;53.484;49.488;2023-04-25T14:52:57;28.60;;;14.65;;
65368;SDS011;51970;53.484;49.488;2023-04-25T14:55:26;23.98;;;12.23;;
65368;SDS011;51970;53.484;49.488;2023-04-25T14:57:58;18.10;;;9.82;;
65368;SDS011;51970;53.484;49.488;2023-04-25T15:00:28;16.75;;;7.88;;
65368;SDS011;51970;53.484;49.488;2023-04-25T15:03:00;15.93;;;7.53;;
65368;SDS011;51970;53.484;49.488;2023-04-25T15:05:58;20.55;;;9.55;;
65368;SDS011;51970;53.484;49.488;2023-04-25T15:08:25;19.33;;;8.90;;
65368;SDS011;51970;53.484;49.488;2023-04-25T15:10:54;21.00;;;7.78;;
65368;SDS011;51970;53.484;49.488;2023-04-25T15:13:49;15.70;;;8.13;;
65368;SDS011;51970;53.484;49.488;2023-04-25T15:16:25;15.18;;;8.52;;
65368;SDS011;51970;53.484;49.488;2023-04-25T15:18:57;14.75;;;6.20;;
65368;SDS011;51970;53.484;49.488;2023-04-25T15:21:57;13.65;;;6.05;;
65368;SDS011;51970;53.484;49.488;2023-04-25T15:24:26;13.77;;;6.40;;
65368;SDS011;51970;53.484;49.488;2023-04-25T15:27:15;13.65;;;6.05;;
65368;SDS011;51970;53.484;49.488;2023-04-25T15:29:46;13.93;;;6.10;;
65368;SDS011;51970;53.484;49.488;2023-04-25T15:33:23;10.75;;;4.75;;
65368;SDS011;51970;53.484;49.488;2023-04-25T15:37:08;10.70;;;5.78;;
65368;SDS011;51970;53.484;49.488;2023-04-25T15:39:47;10.23;;;5.03;;
65368;SDS011;51970;53.484;49.488;2023-04-25T15:42:46;13.52;;;6.70;;
65368;SDS011;51970;53.484;49.488;2023-04-25T15:45:39;13.35;;;6.38;;
65368;SDS011;51970;53.484;49.488;2023-04-25T15:48:06;16.50;;;7.40;;
65368;SDS011;51970;53.484;49.488;2023-04-25T15:50:36;14.85;;;6.32;;
65368;SDS011;51970;53.484;49.488;2023-04-25T15:53:06;15.05;;;6.70;;
65368;SDS011;51970;53.484;49.488;2023-04-25T15:55:42;13.00;;;6.82;;
65368;SDS011;51970;53.484;49.488;2023-04-25T15:58:12;18.50;;;6.38;;
65368;SDS011;51970;53.484;49.488;2023-04-25T16:00:39;28.73;;;11.10;;
65368;SDS011;51970;53.484;49.488;2023-04-25T16:03:06;15.48;;;8.00;;
65368;SDS011;51970;53.484;49.488;2023-04-25T16:05:41;21.02;;;7.90;;
65368;SDS011;51970;53.484;49.488;2023-04-25T16:08:09;16.88;;;8.32;;
65368;SDS011;51970;53.484;49.488;2023-04-25T16:10:35;18.33;;;8.60;;
65368;SDS011;51970;53.484;49.488;2023-04-25T16:13:01;23.10;;;7.85;;
65368;SDS011;51970;53.484;49.488;2023-04-25T16:15:28;17.15;;;7.90;;
65368;SDS011;51970;53.484;49.488;2023-04-25T16:17:54;15.88;;;7.32;;
65368;SDS011;51970;53.484;49.488;2023-04-25T16:20:21;15.32;;;8.10;;
65368;SDS011;51970;53.484;49.488;2023-04-25T16:22:48;12.23;;;6.45;;
65368;SDS011;51970;53.484;49.488;2023-04-25T16:25:16;18.75;;;6.75;;
65368;SDS011;51970;53.484;49.488;2023-04-25T16:27:56;18.17;;;7.65;;
65368;SDS011;51970;53.484;49.488;2023-04-25T16:30:24;17.58;;;8.07;;
65368;SDS011;51970;53.484;49.488;2023-04-25T16:32:51;14.40;;;6.40;;
65368;SDS011;51970;53.484;49.488;2023-04-25T16:35:17;18.50;;;7.97;;
65368;SDS011;51970;53.484;49.488;2023-04-25T16:38:05;16.60;;;7.38;;